Time;durP1;ratioP1;P1;durP2;ratioP2;P2;SDS_P1;SDS_P2;PMS_P1;PMS_P2;Temp;Humidity;BMP_temperature;BMP_pressure;BME280_temperature;BME280_humidity;BME280_pressure;Samples;Min_cycle;Max_cycle;Signal;HPM_P1;HPM_P2
2023/02/16 00:00:57;;;;;;;46.60;27.30;;;;;;;-1.21;71.75;98135.11;108975;1250;101409;-75
2023/02/16 00:03:37;;;;;;;51.50;27.60;;;;;;;-1.21;71.77;98129.54;108563;1251;99370;-75
2023/02/16 00:06:05;;;;;;;51.90;27.50;;;;;;;-1.22;71.82;98127.27;108936;1250;95523;-75
2023/02/16 00:08:34;;;;;;;51.10;27.30;;;;;;;-1.19;71.90;98125.14;109043;1250;96022;-74
2023/02/16 00:13:47;;;;;;;51.20;27.70;;;;;;;-1.21;71.81;98121.92;109018;1250;101242;-74
2023/02/16 00:16:22;;;;;;;55.70;29.60;;;;;;;-1.20;71.78;98122.88;108986;1250;99840;-77
2023/02/16 00:18:51;;;;;;;57.10;29.70;;;;;;;-1.21;71.74;98119.98;108629;1249;95640;-76
2023/02/16 00:21:20;;;;;;;59.40;30.60;;;;;;;-1.22;71.72;98116.73;109022;1250;96000;-76
2023/02/16 00:23:48;;;;;;;57.50;31.40;;;;;;;-1.25;71.74;98114.98;109010;1249;103521;-74
2023/02/16 00:26:20;;;;;;;59.90;30.50;;;;;;;-1.26;71.71;98116.31;108701;1250;100239;-74
2023/02/16 00:28:49;;;;;;;;;;;;;;;-1.28;71.87;98114.20;108706;1249;99082;-74
2023/02/16 00:31:20;;;;;;;61.60;32.40;;;;;;;-1.32;71.96;98116.60;108954;1250;95804;-77
2023/02/16 00:33:49;;;;;;;65.80;32.90;;;;;;;-1.34;72.07;98115.70;108972;1250;96013;-74
2023/02/16 00:36:17;;;;;;;59.90;32.00;;;;;;;-1.33;72.05;98112.86;109032;1249;103471;-74
2023/02/16 00:38:46;;;;;;;63.20;32.50;;;;;;;-1.34;72.09;98110.63;109007;1249;101565;-74
2023/02/16 00:44:18;;;;;;;62.10;30.60;;;;;;;-1.39;72.10;98108.34;108783;1249;95557;-76
2023/02/16 00:46:47;;;;;;;59.80;31.00;;;;;;;-1.41;72.18;98103.77;108736;1256;96411;-76
2023/02/16 00:49:20;;;;;;;60.10;28.60;;;;;;;-1.45;72.33;98101.41;108772;1249;103278;-75
2023/02/16 00:51:49;;;;;;;61.70;28.60;;;;;;;-1.47;72.51;98095.95;109041;1250;101286;-74
2023/02/16 00:54:17;;;;;;;59.20;28.40;;;;;;;-1.48;72.61;98096.36;109012;1249;99911;-77
2023/02/16 00:56:46;;;;;;;57.50;29.80;;;;;;;-1.49;72.55;98096.94;108974;1249;96016;-74
2023/02/16 00:59:21;;;;;;;59.90;27.50;;;;;;;-1.48;72.44;98091.40;109016;1249;96030;-74
2023/02/16 01:01:49;;;;;;;56.60;27.80;;;;;;;-1.47;72.50;98088.68;108967;1250;103527;-74
2023/02/16 01:04:22;;;;;;;57.20;29.70;;;;;;;-1.46;72.47;98087.05;108694;1251;101303;-77
2023/02/16 01:12:22;;;;;;;53.30;27.00;;;;;;;-1.43;72.31;98082.86;109029;1249;96495;-74
2023/02/16 01:14:53;;;;;;;53.10;27.60;;;;;;;-1.45;72.23;98079.34;109014;1251;102494;-74
2023/02/16 01:17:22;;;;;;;48.90;25.30;;;;;;;-1.48;72.38;98075.17;108974;1250;101306;-74
2023/02/16 01:19:51;;;;;;;47.20;25.30;;;;;;;-1.49;72.38;98073.68;108967;1250;99921;-74
2023/02/16 01:22:19;;;;;;;43.50;24.30;;;;;;;-1.51;72.41;98071.70;108983;1250;95653;-74
2023/02/16 01:24:47;;;;;;;42.70;23.70;;;;;;;-1.51;72.53;98068.91;109013;1249;96033;-77
2023/02/16 01:27:15;;;;;;;45.60;24.80;;;;;;;-1.50;72.39;98066.84;108992;1251;103466;-74
2023/02/16 01:29:43;;;;;;;45.30;24.30;;;;;;;-1.50;72.42;98065.95;109014;1250;101345;-77
2023/02/16 01:32:14;;;;;;;40.30;24.40;;;;;;;-1.52;72.48;98062.24;108656;1250;100111;-77
2023/02/16 01:34:43;;;;;;;44.60;23.70;;;;;;;-1.54;72.35;98058.72;108975;1250;95549;-78
2023/02/16 01:37:15;;;;;;;40.60;22.70;;;;;;;-1.59;72.40;98057.67;109010;1251;96014;-74
2023/02/16 01:39:43;;;;;;;43.90;24.00;;;;;;;-1.62;72.46;98055.08;109036;1249;103138;-74
2023/02/16 01:42:33;;;;;;;45.80;24.90;;;;;;;-1.63;72.63;98051.79;108961;1250;101246;-77
2023/02/16 01:45:28;;;;;;;44.80;26.30;;;;;;;-1.64;72.76;98049.27;108855;1251;99862;-77
2023/02/16 01:48:06;;;;;;;42.90;24.90;;;;;;;-1.65;72.74;98043.48;108529;1255;95607;-74
2023/02/16 01:51:06;;;;;;;38.30;23.40;;;;;;;-1.66;72.71;98035.27;108435;1256;97100;-76
2023/02/16 01:53:48;;;;;;;38.80;21.70;;;;;;;-1.68;72.69;98033.84;108384;1256;103896;-77
2023/02/16 01:56:48;;;;;;;37.90;21.50;;;;;;;-1.73;72.74;98027.57;108355;1256;100050;-75
2023/02/16 01:59:30;;;;;;;32.70;19.30;;;;;;;-1.75;72.71;98024.05;108188;1260;100675;-74
2023/02/16 02:02:19;;;;;;;26.50;14.70;;;;;;;-1.76;72.74;98019.69;108036;1260;96036;-76
2023/02/16 02:08:04;;;;;;;35.10;19.90;;;;;;;-1.76;72.86;98015.28;108260;1260;103565;-74
2023/02/16 02:10:44;;;;;;;35.90;19.50;;;;;;;-1.79;72.88;98008.98;107839;1265;101571;-74
2023/02/16 02:13:31;;;;;;;31.30;18.70;;;;;;;-1.83;72.89;98009.48;107853;1265;100452;-74
2023/02/16 02:16:01;;;;;;;34.60;19.30;;;;;;;-1.88;72.98;98005.05;107779;1265;97427;-77
2023/02/16 02:18:29;;;;;;;33.10;18.70;;;;;;;-1.90;73.03;98001.87;107854;1265;96299;-74
2023/02/16 02:24:29;;;;;;;29.80;18.80;;;;;;;-1.87;73.09;98003.95;107843;1265;101250;-76
2023/02/16 02:27:21;;;;;;;32.50;19.40;;;;;;;-1.87;73.07;98000.45;107580;1265;99939;-74
2023/02/16 02:29:58;;;;;;;34.30;18.30;;;;;;;-1.90;73.00;97997.45;107831;1265;95659;-74
2023/02/16 02:32:32;;;;;;;27.50;17.20;;;;;;;-1.94;73.10;97993.55;107844;1265;96117;-76
2023/02/16 02:35:22;;;;;;;30.80;18.20;;;;;;;-1.98;73.12;97988.91;107864;1265;103241;-79
2023/02/16 02:38:00;;;;;;;27.00;15.30;;;;;;;-1.99;73.21;97985.13;108007;1264;101542;-74
2023/02/16 02:41:11;;;;;;;27.40;16.50;;;;;;;-1.98;73.28;97984.17;108009;1263;99945;-76
2023/02/16 02:44:00;;;;;;;28.30;16.50;;;;;;;-1.98;73.30;97985.42;108013;1263;97303;-78
2023/02/16 02:46:34;;;;;;;30.20;17.20;;;;;;;-2.02;73.38;97980.98;107981;1263;97178;-73
2023/02/16 02:49:02;;;;;;;28.60;16.80;;;;;;;-2.07;73.45;97977.48;108450;1256;103507;-74
2023/02/16 02:51:30;;;;;;;27.60;17.20;;;;;;;-2.06;73.48;97978.06;108599;1256;101554;-75
2023/02/16 03:02:37;;;;;;;28.90;16.60;;;;;;;-2.15;73.63;97972.63;108527;1256;103509;-74
2023/02/16 03:05:08;;;;;;;28.80;16.20;;;;;;;-2.18;73.64;97972.83;108569;1255;101187;-74
2023/02/16 03:07:47;;;;;;;29.30;16.40;;;;;;;-2.20;73.71;97972.67;108577;1256;100052;-80
2023/02/16 03:13:17;;;;;;;26.00;15.60;;;;;;;-2.20;73.72;97969.67;108358;1257;96088;-74
2023/02/16 03:15:48;;;;;;;28.50;16.70;;;;;;;-2.24;73.73;97968.20;108599;1255;103574;-77
2023/02/16 03:29:25;;;;;;;30.30;17.30;;;;;;;-2.25;73.80;97971.30;108559;1256;103347;-74
2023/02/16 03:31:56;;;;;;;30.00;17.10;;;;;;;-2.24;73.66;97972.27;108576;1255;109253;-74
2023/02/16 03:34:25;;;;;;;27.50;16.20;;;;;;;-2.25;73.70;97969.73;108496;1255;100005;-75
2023/02/16 03:36:58;;;;;;;29.30;17.10;;;;;;;-2.29;73.78;97971.27;108404;1256;95583;-80
2023/02/16 03:39:29;;;;;;;26.80;15.80;;;;;;;-2.32;73.86;97974.16;108534;1255;97258;-77
2023/02/16 03:41:58;;;;;;;26.30;14.90;;;;;;;-2.32;73.83;97975.52;108509;1256;103424;-75
2023/02/16 03:44:26;;;;;;;26.50;15.50;;;;;;;-2.31;73.88;97982.51;108825;1250;111117;-75
2023/02/16 03:46:54;;;;;;;25.60;15.50;;;;;;;-2.30;73.86;97983.13;108970;1251;99828;-77
2023/02/16 03:49:22;;;;;;;29.10;16.00;;;;;;;-2.29;73.72;97982.48;108961;1250;95517;-75
2023/02/16 03:51:50;;;;;;;27.70;15.30;;;;;;;-2.30;73.87;97977.99;109016;1251;97037;-78
2023/02/16 03:54:18;;;;;;;28.20;15.60;;;;;;;-2.33;73.73;97975.48;108983;1250;103746;-75
2023/02/16 03:56:46;;;;;;;26.60;15.80;;;;;;;-2.33;73.82;97980.07;109035;1249;100507;-77
2023/02/16 03:59:14;;;;;;;26.80;15.70;;;;;;;-2.31;73.88;97989.55;108611;1250;99953;-80
2023/02/16 04:01:42;;;;;;;26.30;15.50;;;;;;;-2.31;73.74;97991.52;108966;1249;95764;-80
2023/02/16 04:04:11;;;;;;;28.50;15.90;;;;;;;-2.33;73.68;97987.40;108726;1250;96141;-75
2023/02/16 04:06:39;;;;;;;26.20;16.30;;;;;;;-2.32;73.66;97988.24;108993;1249;103086;-75
2023/02/16 04:09:07;;;;;;;36.60;19.50;;;;;;;-2.32;73.61;97985.96;108974;1251;100405;-77
2023/02/16 04:14:20;;;;;;;35.10;17.70;;;;;;;-2.34;73.37;97984.17;108952;1249;95620;-75
2023/02/16 04:16:49;;;;;;;24.40;15.50;;;;;;;-2.35;73.53;97983.88;108671;1250;96052;-75
2023/02/16 04:19:17;;;;;;;24.30;14.20;;;;;;;-2.36;73.71;97982.17;109030;1250;103442;-78
2023/02/16 04:21:45;;;;;;;27.60;15.90;;;;;;;-2.41;73.65;97977.09;109028;1251;101171;-77
2023/02/16 04:24:13;;;;;;;24.10;15.90;;;;;;;-2.48;73.65;97976.40;108609;1251;101157;-75
2023/02/16 04:26:41;;;;;;;25.30;15.70;;;;;;;-2.54;73.73;97971.23;108904;1251;95581;-73
2023/02/16 04:29:09;;;;;;;22.70;14.60;;;;;;;-2.58;73.81;97974.86;109018;1251;96053;-73
2023/02/16 04:31:37;;;;;;;23.80;15.20;;;;;;;-2.63;73.89;97975.39;109006;1251;103557;-77
2023/02/16 04:34:05;;;;;;;23.80;15.10;;;;;;;-2.67;73.85;97973.06;109003;1250;101820;-76
2023/02/16 04:36:34;;;;;;;22.70;14.60;;;;;;;-2.68;73.84;97973.36;108654;1251;99062;-74
2023/02/16 04:39:02;;;;;;;22.90;14.10;;;;;;;-2.67;73.87;97969.08;108561;1250;95667;-74
2023/02/16 04:41:30;;;;;;;25.60;15.00;;;;;;;-2.67;73.81;97971.52;108930;1251;96071;-77
2023/02/16 04:43:58;;;;;;;26.80;14.60;;;;;;;-2.69;73.80;97966.86;108995;1251;103317;-74
2023/02/16 04:46:27;;;;;;;25.10;14.70;;;;;;;-2.67;73.85;97966.39;108957;1250;101319;-76
2023/02/16 04:48:55;;;;;;;26.30;14.50;;;;;;;-2.66;73.90;97968.10;108937;1251;99853;-75
2023/02/16 04:51:23;;;;;;;23.90;14.30;;;;;;;-2.67;73.83;97966.75;108920;1251;95607;-74
2023/02/16 04:53:51;;;;;;;26.70;15.50;;;;;;;-2.67;73.64;97967.77;108963;1250;95998;-75
2023/02/16 04:56:19;;;;;;;22.40;14.80;;;;;;;-2.66;73.81;97968.95;108905;1250;103548;-75
2023/02/16 04:58:47;;;;;;;26.00;16.40;;;;;;;-2.64;73.78;97972.66;108977;1251;108777;-79
2023/02/16 05:01:24;;;;;;;26.10;16.50;;;;;;;-2.63;73.79;97972.60;108924;1251;99946;-74
2023/02/16 05:03:52;;;;;;;31.80;20.40;;;;;;;-2.63;73.84;97969.74;108823;1251;95534;-75
2023/02/16 05:06:20;;;;;;;27.20;17.80;;;;;;;-2.63;73.75;97966.05;108935;1250;96109;-75
2023/02/16 05:08:49;;;;;;;25.30;16.90;;;;;;;-2.62;73.77;97964.08;108988;1250;103750;-74
2023/02/16 05:16:48;;;;;;;25.40;16.10;;;;;;;-2.64;73.64;97969.65;108931;1251;96153;-74
2023/02/16 05:19:16;;;;;;;24.80;15.80;;;;;;;-2.67;73.58;97968.33;108945;1251;96003;-78
2023/02/16 05:21:44;;;;;;;27.00;16.60;;;;;;;-2.68;73.63;97964.92;108950;1251;103198;-74
2023/02/16 05:24:12;;;;;;;35.20;21.40;;;;;;;-2.70;73.61;97961.67;108926;1250;101096;-74
2023/02/16 05:26:41;;;;;;;36.70;21.00;;;;;;;-2.71;73.62;97958.60;108989;1249;100246;-74
2023/02/16 05:29:09;;;;;;;44.10;22.40;;;;;;;-2.72;73.61;97956.91;109032;1250;95548;-75
2023/02/16 05:31:37;;;;;;;35.60;19.90;;;;;;;-2.75;73.66;97956.05;109000;1249;96035;-75
2023/02/16 05:34:05;;;;;;;36.00;19.60;;;;;;;-2.77;73.69;97957.12;108652;1251;103386;-75
2023/02/16 05:36:33;;;;;;;37.50;21.60;;;;;;;-2.77;73.68;97953.27;108934;1250;101453;-76
2023/02/16 05:39:01;;;;;;;35.10;20.50;;;;;;;-2.78;73.67;97956.34;108964;1251;99473;-75
2023/02/16 05:41:30;;;;;;;32.10;19.30;;;;;;;-2.80;73.64;97955.39;108713;1251;95796;-77
2023/02/16 05:44:02;;;;;;;34.80;20.40;;;;;;;-2.82;73.62;97956.80;108600;1250;96313;-75
2023/02/16 05:46:31;;;;;;;;;;;;;;;-2.82;73.55;97958.21;109051;1251;103508;-74
2023/02/16 05:49:01;;;;;;;37.90;21.80;;;;;;;-2.84;73.70;97961.33;109019;1250;101404;-75
2023/02/16 05:51:29;;;;;;;36.70;20.70;;;;;;;-2.85;73.67;97962.30;109032;1250;99259;-76
2023/02/16 05:53:58;;;;;;;40.30;23.50;;;;;;;-2.86;73.72;97962.77;108990;1249;95507;-74
2023/02/16 05:56:26;;;;;;;44.50;24.30;;;;;;;-2.87;73.77;97963.31;108725;1250;96028;-73
2023/02/16 05:58:55;;;;;;;45.70;25.70;;;;;;;-2.88;73.83;97959.16;108833;1251;103501;-80
2023/02/16 06:01:23;;;;;;;48.00;25.00;;;;;;;-2.88;73.87;97962.18;108845;1251;101138;-79
2023/02/16 06:03:51;;;;;;;44.70;24.50;;;;;;;-2.91;73.93;97958.48;109010;1251;99967;-78
2023/02/16 06:06:20;;;;;;;44.90;24.60;;;;;;;-2.91;73.93;97957.47;108865;1250;97234;-75
2023/02/16 06:08:48;;;;;;;38.50;23.20;;;;;;;-2.90;73.93;97960.06;108973;1251;96017;-74
2023/02/16 06:14:09;;;;;;;41.80;24.40;;;;;;;-2.89;74.09;97965.06;109005;1250;101385;-73
2023/02/16 06:16:40;;;;;;;41.90;23.30;;;;;;;-2.88;74.08;97963.91;109021;1250;98195;-74
2023/02/16 06:19:09;;;;;;;43.90;24.50;;;;;;;-2.84;74.14;97964.70;109011;1251;95573;-77
2023/02/16 06:21:39;;;;;;;40.60;25.30;;;;;;;-2.81;74.08;97965.38;109081;1251;96050;-74
2023/02/16 06:24:09;;;;;;;46.50;27.60;;;;;;;-2.78;74.07;97967.92;109020;1251;103038;-77
2023/02/16 06:26:38;;;;;;;48.90;28.50;;;;;;;-2.74;74.25;97968.17;109010;1249;101095;-75
2023/02/16 06:29:07;;;;;;;67.10;37.40;;;;;;;-2.73;74.24;97974.06;109005;1249;99724;-74
2023/02/16 06:31:35;;;;;;;66.70;36.70;;;;;;;-2.72;74.09;97976.28;108990;1251;95527;-74
2023/02/16 06:34:04;;;;;;;66.40;35.60;;;;;;;-2.69;74.21;97976.09;109010;1251;96453;-75
2023/02/16 06:36:32;;;;;;;72.50;37.20;;;;;;;-2.66;74.25;97971.27;109032;1251;103743;-74
2023/02/16 06:39:01;;;;;;;69.30;36.10;;;;;;;-2.62;74.25;97969.20;109037;1251;101272;-74
2023/02/16 06:41:34;;;;;;;72.80;36.60;;;;;;;-2.56;74.39;97966.98;108674;1250;99876;-73
2023/02/16 06:44:05;;;;;;;78.20;39.50;;;;;;;-2.51;74.28;97969.39;108705;1251;95591;-77
2023/02/16 06:46:33;;;;;;;76.10;39.30;;;;;;;-2.47;74.26;97969.27;108822;1251;95838;-75
2023/02/16 06:49:02;;;;;;;91.50;45.90;;;;;;;-2.42;74.47;97965.58;109053;1251;103506;-77
2023/02/16 06:51:30;;;;;;;91.30;46.00;;;;;;;-2.35;74.58;97970.69;109019;1251;100270;-75
2023/02/16 06:53:58;;;;;;;82.90;43.90;;;;;;;-2.30;74.53;97968.31;108962;1251;99907;-79
2023/02/16 06:56:26;;;;;;;86.40;41.50;;;;;;;-2.24;74.50;97964.84;108956;1251;95530;-74
2023/02/16 06:58:54;;;;;;;86.20;42.40;;;;;;;-2.18;74.63;97968.42;109032;1249;96060;-74
2023/02/16 07:01:24;;;;;;;80.80;43.80;;;;;;;-2.12;74.48;97970.79;108695;1251;103936;-76
2023/02/16 07:03:54;;;;;;;76.30;42.10;;;;;;;-2.05;74.52;97970.10;108664;1250;101689;-74
2023/02/16 07:06:24;;;;;;;80.40;43.00;;;;;;;-1.98;74.62;97968.45;108996;1250;99440;-76
2023/02/16 07:08:53;;;;;;;71.90;38.60;;;;;;;-1.92;74.71;97964.63;108985;1250;95548;-76
2023/02/16 07:11:22;;;;;;;67.90;37.90;;;;;;;-1.84;74.74;97965.77;108692;1250;96136;-74
2023/02/16 07:13:51;;;;;;;66.00;34.90;;;;;;;-1.77;74.60;97965.08;109057;1250;103587;-76
2023/02/16 07:16:19;;;;;;;62.30;34.20;;;;;;;-1.71;74.54;97970.27;109043;1251;108731;-77
2023/02/16 07:18:48;;;;;;;67.50;36.20;;;;;;;-1.66;74.60;97968.95;108988;1251;99830;-74
2023/02/16 07:21:16;;;;;;;71.60;36.50;;;;;;;-1.57;74.65;97968.05;108975;1251;95774;-74
2023/02/16 07:23:46;;;;;;;75.50;36.90;;;;;;;-1.49;74.53;97972.14;108999;1251;96058;-74
2023/02/16 07:26:14;;;;;;;79.00;37.80;;;;;;;-1.42;74.57;97972.08;108961;1251;103736;-76
2023/02/16 07:28:42;;;;;;;79.90;40.30;;;;;;;-1.34;74.57;97973.44;109018;1250;101315;-78
2023/02/16 07:31:15;;;;;;;89.60;43.10;;;;;;;-1.26;74.63;97969.23;109017;1250;107529;-75
2023/02/16 07:33:43;;;;;;;84.30;43.00;;;;;;;-1.18;74.53;97962.35;109005;1251;95590;-75
2023/02/16 07:36:12;;;;;;;88.70;43.70;;;;;;;-1.09;74.39;97957.45;109013;1250;96029;-74
2023/02/16 07:38:41;;;;;;;86.10;45.00;;;;;;;-1.03;74.47;97953.23;109004;1251;103477;-73
2023/02/16 07:41:10;;;;;;;100.70;50.90;;;;;;;-0.98;74.46;97951.74;108948;1251;101270;-74
2023/02/16 07:43:41;;;;;;;97.80;49.30;;;;;;;-0.91;74.50;97953.30;108975;1251;99884;-75
2023/02/16 07:46:10;;;;;;;90.60;48.20;;;;;;;-0.81;74.39;97954.08;108644;1251;95645;-75
2023/02/16 07:48:38;;;;;;;91.70;47.10;;;;;;;-0.71;74.45;97946.09;109059;1251;96434;-75
2023/02/16 07:51:06;;;;;;;95.70;46.60;;;;;;;-0.58;74.53;97944.31;109017;1253;103597;-74
2023/02/16 07:53:35;;;;;;;93.80;48.30;;;;;;;-0.46;74.39;97941.70;109052;1249;100651;-74
2023/02/16 07:56:03;;;;;;;87.60;44.00;;;;;;;-0.36;74.37;97943.88;108973;1249;100164;-77
2023/02/16 07:58:31;;;;;;;83.90;42.90;;;;;;;-0.23;74.36;97939.96;108863;1250;215834;-77
2023/02/16 08:01:09;;;;;;;71.60;38.00;;;;;;;-0.08;74.20;97937.23;109070;1251;96015;-73
2023/02/16 08:03:38;;;;;;;66.10;35.50;;;;;;;0.11;74.22;97936.62;108991;1253;103514;-74
2023/02/16 08:06:07;;;;;;;64.10;34.30;;;;;;;0.35;74.06;97933.66;108632;1251;102843;-78
2023/02/16 08:11:40;;;;;;;56.50;30.10;;;;;;;0.92;73.58;97938.77;108970;1251;95538;-74
2023/02/16 08:14:09;;;;;;;58.70;30.60;;;;;;;1.20;73.24;97936.59;108727;1250;96046;-75
2023/02/16 08:16:38;;;;;;;56.80;29.20;;;;;;;1.46;72.98;97932.58;108990;1251;103575;-74
2023/02/16 08:19:08;;;;;;;45.60;25.20;;;;;;;1.75;72.40;97938.02;109031;1251;101493;-75
2023/02/16 08:21:36;;;;;;;44.20;26.00;;;;;;;2.05;71.79;97937.66;108803;1251;99847;-74
2023/02/16 08:24:07;;;;;;;47.20;25.90;;;;;;;2.33;71.40;97934.55;108974;1251;95569;-74
2023/02/16 08:26:40;;;;;;;39.50;22.70;;;;;;;2.59;71.16;97937.04;109033;1251;96068;-76
2023/02/16 08:29:11;;;;;;;42.60;23.80;;;;;;;2.83;70.51;97930.78;108982;1251;103512;-74
2023/02/16 08:31:40;;;;;;;40.90;22.30;;;;;;;3.07;69.77;97926.93;109050;1250;101023;-74
2023/02/16 08:34:08;;;;;;;40.50;22.50;;;;;;;3.30;69.39;97926.10;108985;1250;99949;-75
2023/02/16 08:36:38;;;;;;;35.90;20.70;;;;;;;3.50;68.97;97927.63;108976;1251;95847;-77
2023/02/16 08:39:19;;;;;;;35.80;22.10;;;;;;;3.72;68.76;97927.69;108945;1251;96068;-74
2023/02/16 08:41:49;;;;;;;39.80;22.60;;;;;;;3.95;68.33;97921.80;108918;1250;103190;-76
2023/02/16 08:44:19;;;;;;;39.40;21.70;;;;;;;4.16;67.82;97926.21;108935;1251;100997;-73
2023/02/16 08:46:49;;;;;;;38.30;21.30;;;;;;;4.37;67.55;97926.66;108967;1250;99831;-74
2023/02/16 08:49:19;;;;;;;37.90;21.80;;;;;;;4.58;66.94;97927.48;108983;1251;95827;-75
2023/02/16 08:51:50;;;;;;;42.30;22.30;;;;;;;4.80;66.62;97926.08;108939;1251;95990;-74
2023/02/16 08:54:26;;;;;;;40.60;22.70;;;;;;;5.02;66.07;97921.59;108416;1251;103489;-73
2023/02/16 08:56:56;;;;;;;42.40;24.00;;;;;;;5.24;65.98;97921.50;109026;1251;101409;-77
2023/02/16 08:59:25;;;;;;;43.50;24.80;;;;;;;5.46;65.50;97917.47;108948;1250;100172;-73
2023/02/16 09:01:53;;;;;;;34.70;21.50;;;;;;;5.70;65.50;97918.21;108961;1249;95543;-74
2023/02/16 09:04:23;;;;;;;37.40;21.40;;;;;;;5.97;64.85;97919.14;108959;1251;96009;-75
2023/02/16 09:06:52;;;;;;;38.60;21.90;;;;;;;6.24;63.99;97917.95;109015;1251;103385;-74
2023/02/16 09:09:20;;;;;;;37.20;21.50;;;;;;;6.54;63.43;97916.73;108955;1253;101281;-74
2023/02/16 09:11:49;;;;;;;35.80;21.00;;;;;;;6.82;62.93;97911.15;108972;1250;100034;-74
2023/02/16 09:14:20;;;;;;;39.30;22.80;;;;;;;7.12;62.63;97912.98;108990;1251;95575;-74
2023/02/16 09:16:48;;;;;;;39.40;22.10;;;;;;;7.46;61.81;97911.56;108981;1251;95682;-75
2023/02/16 09:19:21;;;;;;;42.50;21.90;;;;;;;7.75;61.02;97909.05;108993;1250;103404;-75
2023/02/16 09:21:50;;;;;;;;;;;;;;;8.01;60.39;97905.04;109031;1251;101251;-75
2023/02/16 09:24:20;;;;;;;40.40;21.60;;;;;;;8.22;59.92;97903.21;108970;1250;99806;-73
2023/02/16 09:26:48;;;;;;;35.00;21.90;;;;;;;8.43;59.41;97908.15;108648;1251;95691;-75
2023/02/16 09:29:17;;;;;;;37.70;23.50;;;;;;;8.65;59.04;97903.20;108831;1251;95562;-74
2023/02/16 09:31:45;;;;;;;36.70;22.20;;;;;;;8.86;58.20;97897.90;109030;1251;103287;-76
2023/02/16 09:34:13;;;;;;;34.10;22.00;;;;;;;9.06;57.55;97894.13;109024;1249;101160;-74
2023/02/16 09:36:42;;;;;;;35.40;22.20;;;;;;;9.30;56.95;97892.44;108999;1251;99304;-75
2023/02/16 09:39:11;;;;;;;32.20;20.40;;;;;;;9.52;56.15;97889.64;108980;1250;95603;-73
2023/02/16 09:41:49;;;;;;;35.60;21.50;;;;;;;9.63;55.41;97891.77;108966;1251;96026;-75
2023/02/16 09:44:47;;;;;;;33.10;18.80;;;;;;;9.78;55.00;97898.33;109015;1251;103556;-74
2023/02/16 09:47:29;;;;;;;27.70;18.50;;;;;;;9.99;54.94;97896.92;109017;1251;100099;-75
2023/02/16 09:50:03;;;;;;;32.50;20.70;;;;;;;10.24;54.79;97893.36;108978;1250;99730;-74
2023/02/16 09:52:40;;;;;;;33.80;20.50;;;;;;;10.44;54.24;97892.17;108969;1251;95590;-73
2023/02/16 09:55:15;;;;;;;34.60;20.90;;;;;;;10.66;54.03;97888.96;108733;1250;95995;-74
2023/02/16 09:57:47;;;;;;;33.80;20.30;;;;;;;10.86;53.07;97882.07;108764;1250;102716;-73
2023/02/16 10:00:36;;;;;;;32.10;20.20;;;;;;;10.98;52.58;97875.02;109049;1251;100015;-74
2023/02/16 10:03:36;;;;;;;30.40;18.00;;;;;;;11.06;51.86;97875.25;108953;1251;99903;-74
2023/02/16 10:06:13;;;;;;;31.20;19.10;;;;;;;11.20;51.56;97873.39;108927;1249;95552;-74
2023/02/16 10:08:47;;;;;;;30.20;18.30;;;;;;;11.36;50.89;97868.63;108999;1251;95889;-74
2023/02/16 10:11:40;;;;;;;28.50;18.90;;;;;;;11.54;50.77;97866.05;109068;1251;103461;-74
2023/02/16 10:14:23;;;;;;;27.80;18.90;;;;;;;11.75;50.50;97867.20;109009;1251;101260;-75
2023/02/16 10:16:55;;;;;;;;;;;;;;;11.88;49.26;97865.64;108997;1249;99963;-74
2023/02/16 10:19:39;;;;;;;30.50;20.00;;;;;;;11.84;48.86;97861.47;108585;1251;96087;-74
2023/02/16 10:22:17;;;;;;;33.30;20.70;;;;;;;11.95;48.82;97860.17;108978;1250;95766;-74
2023/02/16 10:24:55;;;;;;;34.40;21.10;;;;;;;12.09;48.65;97859.41;109006;1250;103501;-74
2023/02/16 10:27:26;;;;;;;30.40;18.40;;;;;;;12.25;48.27;97861.98;108875;1250;101349;-74
2023/02/16 10:29:55;;;;;;;32.70;20.30;;;;;;;12.44;48.12;97861.48;108987;1250;100105;-74
2023/02/16 10:32:31;;;;;;;35.50;22.00;;;;;;;12.62;47.64;97857.15;108676;1251;96630;-76
2023/02/16 10:35:12;;;;;;;36.50;20.50;;;;;;;12.70;47.13;97857.20;109028;1250;95767;-74
2023/02/16 10:37:59;;;;;;;40.20;23.00;;;;;;;12.74;47.07;97851.52;109025;1250;103378;-74
2023/02/16 10:40:36;;;;;;;47.90;26.10;;;;;;;12.81;46.93;97848.95;109004;1251;101027;-74
2023/02/16 10:43:23;;;;;;;40.20;23.50;;;;;;;12.96;46.97;97850.42;108994;1250;100323;-74
2023/02/16 10:45:54;;;;;;;29.60;19.10;;;;;;;13.11;46.95;97849.70;108987;1249;95608;-75
2023/02/16 10:48:25;;;;;;;29.50;19.40;;;;;;;13.18;46.40;97848.08;109026;1251;96075;-74
2023/02/16 10:51:03;;;;;;;29.70;19.60;;;;;;;13.31;46.19;97840.34;109053;1249;103517;-74
2023/02/16 10:53:32;;;;;;;33.90;21.00;;;;;;;13.40;46.19;97839.50;108974;1251;101535;-77
2023/02/16 10:56:00;;;;;;;34.70;21.10;;;;;;;13.45;45.85;97838.09;108990;1250;98951;-74
2023/02/16 10:58:41;;;;;;;33.40;22.00;;;;;;;13.48;45.86;97839.36;109001;1251;95547;-74
2023/02/16 11:01:20;;;;;;;34.00;21.70;;;;;;;13.43;45.35;97835.04;108663;1250;95822;-75
2023/02/16 11:03:53;;;;;;;30.30;21.70;;;;;;;13.46;45.35;97830.94;109029;1251;103259;-73
2023/02/16 11:06:24;;;;;;;32.80;22.00;;;;;;;13.55;45.22;97831.08;109035;1251;101345;-75
2023/02/16 11:08:56;;;;;;;37.20;22.70;;;;;;;13.67;45.02;97834.59;108974;1250;99593;-84
2023/02/16 11:11:30;;;;;;;35.90;22.20;;;;;;;13.85;44.95;97829.14;108820;1250;95620;-79
2023/02/16 11:14:03;;;;;;;33.10;21.30;;;;;;;13.92;44.31;97826.48;108962;1251;95817;-79
2023/02/16 11:16:32;;;;;;;35.50;22.60;;;;;;;13.93;44.89;97829.14;108664;1251;103399;-79
2023/02/16 11:19:06;;;;;;;33.50;23.10;;;;;;;13.99;44.48;97830.86;108986;1250;101171;-78
2023/02/16 11:21:46;;;;;;;34.10;22.40;;;;;;;14.05;44.06;97829.04;108992;1249;98408;-78
2023/02/16 11:24:29;;;;;;;30.50;21.50;;;;;;;14.02;43.91;97824.17;108930;1249;96003;-78
2023/02/16 11:27:18;;;;;;;30.70;20.30;;;;;;;14.00;43.35;97823.17;108973;1251;96490;-77
2023/02/16 11:29:46;;;;;;;33.90;20.70;;;;;;;14.03;43.39;97820.66;108927;1251;102654;-77
2023/02/16 11:32:18;;;;;;;32.50;21.70;;;;;;;14.03;43.25;97815.93;109019;1251;100249;-77
2023/02/16 11:34:51;;;;;;;30.90;20.20;;;;;;;14.04;43.07;97816.89;108756;1251;99997;-76
2023/02/16 11:37:25;;;;;;;29.00;20.00;;;;;;;14.15;43.01;97816.96;108974;1250;95546;-76
2023/02/16 11:40:00;;;;;;;29.50;21.10;;;;;;;14.31;42.81;97812.08;109002;1250;95880;-76
2023/02/16 11:42:42;;;;;;;33.60;22.50;;;;;;;14.45;42.79;97811.32;109005;1250;103519;-76
2023/02/16 11:45:30;;;;;;;28.50;20.70;;;;;;;14.57;42.45;97806.97;109009;1250;101307;-76
2023/02/16 11:48:00;;;;;;;32.10;20.00;;;;;;;14.68;42.04;97795.02;108970;1250;99958;-76
2023/02/16 11:50:34;;;;;;;29.90;19.90;;;;;;;14.72;41.32;97794.38;108974;1250;95545;-76
2023/02/16 11:53:11;;;;;;;29.70;20.50;;;;;;;14.70;41.48;97789.34;109007;1250;95786;-76
2023/02/16 11:55:47;;;;;;;30.20;19.80;;;;;;;14.71;41.58;97786.10;109000;1249;103392;-76
2023/02/16 11:58:15;;;;;;;28.40;19.50;;;;;;;14.72;41.16;97782.53;108979;1250;101304;-77
2023/02/16 12:00:58;;;;;;;26.40;18.70;;;;;;;14.69;41.06;97780.20;108979;1250;99980;-77
2023/02/16 12:03:33;;;;;;;26.10;17.50;;;;;;;14.70;41.05;97776.77;108851;1251;95824;-77
2023/02/16 12:06:27;;;;;;;26.20;18.60;;;;;;;14.68;41.05;97770.67;108979;1250;95812;-76
2023/02/16 12:09:26;;;;;;;25.60;18.00;;;;;;;14.73;41.03;97770.05;108940;1250;102561;-77
2023/02/16 12:11:57;;;;;;;24.80;17.80;;;;;;;14.72;40.75;97767.08;108920;1251;101658;-76
2023/02/16 12:14:46;;;;;;;25.70;18.30;;;;;;;14.81;40.62;97764.88;108969;1251;100062;-76
2023/02/16 12:17:38;;;;;;;26.10;18.00;;;;;;;14.81;40.63;97762.23;108883;1251;95886;-76
2023/02/16 12:20:16;;;;;;;25.40;18.50;;;;;;;14.87;40.45;97762.31;108938;1250;95594;-76
2023/02/16 12:22:49;;;;;;;26.60;18.70;;;;;;;15.00;40.56;97760.04;108952;1250;103583;-76
2023/02/16 12:25:33;;;;;;;29.10;19.20;;;;;;;15.09;40.54;97756.35;108690;1251;101088;-76